BLUE7 X50-KLAL
Flight info
| Callsign | BLUE7 |
|---|---|
| Flight time | N/A |
| Altitude | 11000 |
| Route | VPFSY VPRCX VPKER |
| Aircraft | SR22/L-VGDW/C |
Departure
| Time | N/A |
|---|---|
| Airport | X50 |
Arrival
| Time | 2026-04-22 00:47 |
|---|---|
| Airport | Lakeland Linder International Airport (KLAL) |
| Time | Latitude | Longitude | Altitude | Speed | Heading |
|---|---|---|---|---|---|
| 2026-04-22 00:11 | 28.97796 | -80.92555 | 10 ft | 0 kts | 77° |
| 2026-04-22 00:11 | 28.97795 | -80.92545 | 10 ft | 1 kts | 99° |
| 2026-04-22 00:12 | 28.97857 | -80.92492 | 10 ft | 10 kts | 34° |
| 2026-04-22 00:12 | 28.98050 | -80.92534 | 10 ft | 43 kts | 359° |
| 2026-04-22 00:12 | 28.98224 | -80.92558 | 10 ft | 22 kts | 4° |
| 2026-04-22 00:12 | 28.98292 | -80.92560 | 10 ft | 18 kts | 346° |
| 2026-04-22 00:13 | 28.98353 | -80.92577 | 10 ft | 0 kts | 31° |
| 2026-04-22 00:14 | 28.98359 | -80.92572 | 10 ft | 8 kts | 10° |
| 2026-04-22 00:15 | 28.98440 | -80.92591 | 10 ft | 3 kts | 341° |
| 2026-04-22 00:15 | 28.98455 | -80.92550 | 10 ft | 6 kts | 199° |
| 2026-04-22 00:15 | 28.98205 | -80.92512 | 10 ft | 61 kts | 184° |
| 2026-04-22 00:15 | 28.97702 | -80.92456 | 181 ft | 83 kts | 167° |
| 2026-04-22 00:16 | 28.97077 | -80.92248 | 410 ft | 94 kts | 146° |
| 2026-04-22 00:16 | 28.96443 | -80.91901 | 687 ft | 101 kts | 156° |
| 2026-04-22 00:16 | 28.95755 | -80.91814 | 993 ft | 108 kts | 174° |
| 2026-04-22 00:16 | 28.94992 | -80.91859 | 1277 ft | 112 kts | 176° |
| 2026-04-22 00:17 | 28.94232 | -80.92039 | 1572 ft | 120 kts | 197° |
| 2026-04-22 00:17 | 28.93579 | -80.92596 | 1980 ft | 114 kts | 219° |
| 2026-04-22 00:17 | 28.93252 | -80.93478 | 2272 ft | 120 kts | 261° |
| 2026-04-22 00:17 | 28.93176 | -80.94469 | 2470 ft | 131 kts | 266° |
| 2026-04-22 00:18 | 28.93165 | -80.95532 | 2756 ft | 131 kts | 268° |
| 2026-04-22 00:18 | 28.93178 | -80.96609 | 2791 ft | 154 kts | 270° |
| 2026-04-22 00:18 | 28.93205 | -80.97903 | 2905 ft | 161 kts | 271° |
| 2026-04-22 00:18 | 28.93262 | -80.99078 | 3417 ft | 138 kts | 273° |
| 2026-04-22 00:19 | 28.93306 | -81.00071 | 3905 ft | 116 kts | 272° |
| 2026-04-22 00:19 | 28.93331 | -81.00884 | 4378 ft | 89 kts | 273° |
| 2026-04-22 00:19 | 28.93341 | -81.01585 | 4542 ft | 98 kts | 274° |
| 2026-04-22 00:19 | 28.93430 | -81.02303 | 4739 ft | 103 kts | 284° |
| 2026-04-22 00:20 | 28.93535 | -81.03222 | 4913 ft | 113 kts | 274° |
| 2026-04-22 00:20 | 28.93540 | -81.04054 | 5255 ft | 102 kts | 273° |
| 2026-04-22 00:20 | 28.93520 | -81.04861 | 5481 ft | 107 kts | 262° |
| 2026-04-22 00:20 | 28.93112 | -81.05676 | 5532 ft | 131 kts | 226° |
| 2026-04-22 00:21 | 28.92394 | -81.06464 | 5522 ft | 152 kts | 222° |
| 2026-04-22 00:21 | 28.91565 | -81.07318 | 5513 ft | 167 kts | 221° |
| 2026-04-22 00:21 | 28.90666 | -81.08231 | 5506 ft | 177 kts | 221° |
| 2026-04-22 00:21 | 28.89720 | -81.09184 | 5505 ft | 184 kts | 221° |
| 2026-04-22 00:22 | 28.88745 | -81.10159 | 5500 ft | 188 kts | 221° |
| 2026-04-22 00:22 | 28.87759 | -81.11142 | 5499 ft | 190 kts | 220° |
| 2026-04-22 00:22 | 28.86754 | -81.12141 | 5499 ft | 192 kts | 220° |
| 2026-04-22 00:22 | 28.85743 | -81.13145 | 5499 ft | 193 kts | 220° |
| 2026-04-22 00:23 | 28.84718 | -81.14160 | 5497 ft | 194 kts | 220° |
| 2026-04-22 00:23 | 28.83682 | -81.15186 | 5492 ft | 199 kts | 220° |
| 2026-04-22 00:23 | 28.82644 | -81.16213 | 5484 ft | 201 kts | 220° |
| 2026-04-22 00:23 | 28.81581 | -81.17265 | 5491 ft | 202 kts | 220° |
| 2026-04-22 00:24 | 28.80512 | -81.18323 | 5491 ft | 203 kts | 220° |
| 2026-04-22 00:24 | 28.79447 | -81.19376 | 5490 ft | 203 kts | 220° |
| 2026-04-22 00:24 | 28.78363 | -81.20448 | 5490 ft | 204 kts | 220° |
| 2026-04-22 00:24 | 28.77290 | -81.21508 | 5491 ft | 204 kts | 220° |
| 2026-04-22 00:25 | 28.76219 | -81.22566 | 5490 ft | 204 kts | 220° |
| 2026-04-22 00:25 | 28.75147 | -81.23624 | 5487 ft | 204 kts | 220° |
| 2026-04-22 00:25 | 28.74072 | -81.24684 | 5487 ft | 204 kts | 220° |
| 2026-04-22 00:25 | 28.72995 | -81.25747 | 5488 ft | 204 kts | 220° |
| 2026-04-22 00:26 | 28.71919 | -81.26809 | 5488 ft | 204 kts | 220° |
| 2026-04-22 00:26 | 28.70835 | -81.27878 | 5489 ft | 204 kts | 220° |
| 2026-04-22 00:26 | 28.69757 | -81.28941 | 5489 ft | 205 kts | 220° |
| 2026-04-22 00:26 | 28.68678 | -81.30004 | 5488 ft | 204 kts | 220° |
| 2026-04-22 00:27 | 28.67605 | -81.31062 | 5486 ft | 205 kts | 220° |
| 2026-04-22 00:27 | 28.66527 | -81.32125 | 5488 ft | 205 kts | 220° |
| 2026-04-22 00:27 | 28.65446 | -81.33189 | 5488 ft | 205 kts | 220° |
| 2026-04-22 00:27 | 28.64367 | -81.34251 | 5487 ft | 205 kts | 220° |
| 2026-04-22 00:28 | 28.63287 | -81.35313 | 5486 ft | 205 kts | 220° |
| 2026-04-22 00:28 | 28.62207 | -81.36376 | 5485 ft | 205 kts | 220° |
| 2026-04-22 00:28 | 28.61125 | -81.37441 | 5484 ft | 205 kts | 220° |
| 2026-04-22 00:28 | 28.60042 | -81.38506 | 5485 ft | 204 kts | 220° |
| 2026-04-22 00:29 | 28.58969 | -81.39561 | 5483 ft | 204 kts | 220° |
| 2026-04-22 00:29 | 28.57886 | -81.40627 | 5484 ft | 204 kts | 220° |
| 2026-04-22 00:29 | 28.56807 | -81.41686 | 5485 ft | 204 kts | 220° |
| 2026-04-22 00:29 | 28.55741 | -81.42734 | 5488 ft | 204 kts | 220° |
| 2026-04-22 00:30 | 28.54665 | -81.43791 | 5486 ft | 204 kts | 220° |
| 2026-04-22 00:30 | 28.53577 | -81.44859 | 5486 ft | 204 kts | 220° |
| 2026-04-22 00:30 | 28.52508 | -81.45911 | 5485 ft | 204 kts | 220° |
| 2026-04-22 00:30 | 28.51426 | -81.46973 | 5482 ft | 204 kts | 220° |
| 2026-04-22 00:31 | 28.50344 | -81.48034 | 5481 ft | 204 kts | 220° |
| 2026-04-22 00:31 | 28.49273 | -81.49084 | 5481 ft | 204 kts | 220° |
| 2026-04-22 00:31 | 28.48189 | -81.50148 | 5479 ft | 204 kts | 220° |
| 2026-04-22 00:31 | 28.47110 | -81.51206 | 5481 ft | 204 kts | 220° |
| 2026-04-22 00:32 | 28.46036 | -81.52258 | 5479 ft | 204 kts | 220° |
| 2026-04-22 00:32 | 28.44963 | -81.53309 | 5477 ft | 205 kts | 221° |
| 2026-04-22 00:32 | 28.43883 | -81.54367 | 5479 ft | 204 kts | 220° |
| 2026-04-22 00:32 | 28.42804 | -81.55427 | 5480 ft | 204 kts | 221° |
| 2026-04-22 00:33 | 28.41719 | -81.56485 | 5479 ft | 204 kts | 220° |
| 2026-04-22 00:33 | 28.40640 | -81.57537 | 5487 ft | 204 kts | 220° |
| 2026-04-22 00:33 | 28.39562 | -81.58594 | 5480 ft | 205 kts | 220° |
| 2026-04-22 00:33 | 28.38477 | -81.59659 | 5484 ft | 205 kts | 220° |
| 2026-04-22 00:34 | 28.37400 | -81.60710 | 5485 ft | 205 kts | 220° |
| 2026-04-22 00:34 | 28.36318 | -81.61768 | 5496 ft | 205 kts | 220° |
| 2026-04-22 00:34 | 28.35236 | -81.62824 | 5479 ft | 205 kts | 220° |
| 2026-04-22 00:34 | 28.34156 | -81.63879 | 5491 ft | 205 kts | 220° |
| 2026-04-22 00:35 | 28.33061 | -81.64950 | 5418 ft | 210 kts | 220° |
| 2026-04-22 00:35 | 28.31940 | -81.66046 | 5306 ft | 212 kts | 219° |
| 2026-04-22 00:35 | 28.30817 | -81.67142 | 5176 ft | 213 kts | 219° |
| 2026-04-22 00:35 | 28.29691 | -81.68241 | 5060 ft | 214 kts | 219° |
| 2026-04-22 00:36 | 28.28562 | -81.69344 | 4937 ft | 214 kts | 219° |
| 2026-04-22 00:36 | 28.27438 | -81.70439 | 4819 ft | 215 kts | 219° |
| 2026-04-22 00:36 | 28.26288 | -81.71560 | 4577 ft | 220 kts | 218° |
| 2026-04-22 00:36 | 28.25097 | -81.72723 | 4272 ft | 225 kts | 218° |
| 2026-04-22 00:37 | 28.23908 | -81.73882 | 3976 ft | 227 kts | 218° |
| 2026-04-22 00:37 | 28.22705 | -81.75055 | 3677 ft | 228 kts | 217° |
| 2026-04-22 00:37 | 28.21513 | -81.76218 | 3385 ft | 224 kts | 217° |
| 2026-04-22 00:37 | 28.20355 | -81.77348 | 3083 ft | 213 kts | 216° |
| 2026-04-22 00:38 | 28.19246 | -81.78426 | 2783 ft | 207 kts | 217° |
| 2026-04-22 00:38 | 28.18173 | -81.79470 | 2489 ft | 203 kts | 216° |
| 2026-04-22 00:38 | 28.17113 | -81.80502 | 2191 ft | 198 kts | 215° |
| 2026-04-22 00:38 | 28.16122 | -81.81562 | 1892 ft | 196 kts | 223° |
| 2026-04-22 00:39 | 28.15260 | -81.82737 | 1701 ft | 189 kts | 225° |
| 2026-04-22 00:39 | 28.14449 | -81.83868 | 1681 ft | 178 kts | 224° |
| 2026-04-22 00:39 | 28.13678 | -81.84933 | 1680 ft | 174 kts | 224° |
| 2026-04-22 00:39 | 28.12940 | -81.85957 | 1672 ft | 158 kts | 224° |
| 2026-04-22 00:40 | 28.12239 | -81.86921 | 1327 ft | 162 kts | 225° |
| 2026-04-22 00:40 | 28.11569 | -81.87844 | 1178 ft | 142 kts | 225° |
| 2026-04-22 00:40 | 28.10977 | -81.88668 | 1170 ft | 132 kts | 224° |
| 2026-04-22 00:40 | 28.10390 | -81.89477 | 1182 ft | 130 kts | 224° |
| 2026-04-22 00:41 | 28.09830 | -81.90249 | 1176 ft | 122 kts | 224° |
| 2026-04-22 00:41 | 28.09333 | -81.90993 | 1174 ft | 117 kts | 227° |
| 2026-04-22 00:41 | 28.08855 | -81.91769 | 1185 ft | 120 kts | 227° |
| 2026-04-22 00:41 | 28.08364 | -81.92560 | 1193 ft | 125 kts | 228° |
| 2026-04-22 00:42 | 28.07900 | -81.93407 | 1148 ft | 130 kts | 237° |
| 2026-04-22 00:42 | 28.07576 | -81.94312 | 1172 ft | 126 kts | 283° |
| 2026-04-22 00:42 | 28.07921 | -81.95208 | 1168 ft | 126 kts | 295° |
| 2026-04-22 00:42 | 28.08095 | -81.96207 | 1137 ft | 131 kts | 272° |
| 2026-04-22 00:43 | 28.08112 | -81.97244 | 1105 ft | 133 kts | 260° |
| 2026-04-22 00:43 | 28.07890 | -81.98235 | 1126 ft | 131 kts | 244° |
| 2026-04-22 00:43 | 28.07433 | -81.99127 | 1119 ft | 128 kts | 231° |
| 2026-04-22 00:43 | 28.06941 | -81.99983 | 1095 ft | 128 kts | 226° |
| 2026-04-22 00:44 | 28.06358 | -82.00741 | 1057 ft | 129 kts | 214° |
| 2026-04-22 00:44 | 28.05661 | -82.01336 | 1038 ft | 125 kts | 204° |
| 2026-04-22 00:44 | 28.04854 | -82.01676 | 1021 ft | 116 kts | 190° |
| 2026-04-22 00:44 | 28.04115 | -82.01980 | 1077 ft | 111 kts | 187° |
| 2026-04-22 00:45 | 28.03382 | -82.02218 | 1073 ft | 112 kts | 183° |
| 2026-04-22 00:45 | 28.02603 | -82.02417 | 1026 ft | 116 kts | 183° |
| 2026-04-22 00:45 | 28.01829 | -82.02622 | 1021 ft | 112 kts | 180° |
| 2026-04-22 00:45 | 28.01075 | -82.02766 | 1034 ft | 107 kts | 174° |
| 2026-04-22 00:46 | 28.00376 | -82.03053 | 981 ft | 120 kts | 238° |
| 2026-04-22 00:46 | 28.00232 | -82.03892 | 1014 ft | 106 kts | 246° |
| 2026-04-22 00:46 | 27.99726 | -82.04282 | 861 ft | 79 kts | 162° |
| 2026-04-22 00:46 | 27.99253 | -82.04079 | 562 ft | 74 kts | 128° |
| 2026-04-22 00:47 | 27.99045 | -82.03586 | 290 ft | 68 kts | 100° |
| 2026-04-22 00:47 | 27.99031 | -82.03082 | 177 ft | 60 kts | 89° |
| 2026-04-22 00:47 | 27.99035 | -82.02631 | 125 ft | 53 kts | 89° |
| 2026-04-22 00:47 | 27.99032 | -82.02262 | 127 ft | 42 kts | 87° |
| 2026-04-22 00:48 | 27.99031 | -82.01920 | 130 ft | 45 kts | 87° |
| 2026-04-22 00:48 | 27.99034 | -82.01600 | 131 ft | 36 kts | 89° |
| 2026-04-22 00:48 | 27.99038 | -82.01289 | 135 ft | 41 kts | 94° |
| 2026-04-22 00:48 | 27.99032 | -82.00970 | 135 ft | 35 kts | 90° |
| 2026-04-22 00:49 | 27.99009 | -82.00770 | 135 ft | 11 kts | 206° |
| 2026-04-22 00:49 | 27.98933 | -82.00751 | 135 ft | 26 kts | 163° |
| 2026-04-22 00:49 | 27.98751 | -82.00771 | 134 ft | 19 kts | 221° |
| 2026-04-22 00:49 | 27.98733 | -82.00927 | 134 ft | 26 kts | 280° |
| 2026-04-22 00:50 | 27.98701 | -82.01190 | 132 ft | 35 kts | 257° |